De Land, IL (61839)

7:41 AM CDT on September 03, 2015 (GMT -0500)
City of Monticello Public Works | | Change Station
CLOSE
Current Station
Personal Weather Station
Location: Monticello, IL
Elevation: 653 ft
Nearby Weather Stations

Elev 653 ft 40.03 °N, 88.58 °W | Updated 2 minutes ago

Clear
Clear
71.9 °F
Feels Like 71.9 °F
N
0.0
Wind Variable Wind from SSW
Gusts 3.0 mph

Today
High -- | Low -- °F
--% Chance of Precip.
Yesterday
High -- | Low -- °F
Precip. -- in
6:23 AM 7:23 PM
Waning Gibbous, 70% visible
Pressure 30.01 in
Visibility 5.0 miles
Clouds Clear
Dew Point 69 °F
Humidity 90%
Rainfall 0.00 in
Snow Depth Not available.
UV 0 out of 12
Pollen 10.30 out of 12
Air Quality Not available.
Flu Activity Not available.
METAR KCMI 031153Z 21003KT 5SM BR CLR 20/19 A3003 RMK AO2 SLP162 T02000189 10211 20200 53008
Pressure 30.01 in
Visibility 5.0 miles
Clouds Clear
Dew Point 69 °F
Humidity 90%
Rainfall 0.00 in
Snow Depth Not available.
UV 0 out of 12
Pollen 10.30 out of 12
Air Quality Not available.
Flu Activity Not available.
METAR KCMI 031153Z 21003KT 5SM BR CLR 20/19 A3003 RMK AO2 SLP162 T02000189 10211 20200 53008

10-Day Weather Forecast

×

Almanac

Astronomy

Sep. 03, 2015 Rise Set
Actual Time
Civil Twilight
Nautical Twilight
Astronomical Twilight
Moon
Length of Visible Light
Length of Day
Tomorrow will be .
, % of the Moon is Illuminated

Today's Extremes

State Highs State Lows

Community

WunderPhotos

Upload Photos

1,851,946 photos uploaded!

WunderBlogs® & News

Nearby

Air Quality

  Air Quality AQ Index Pollutant
Not available.

Snow Depth

Station Depth Elevation

Earthquake Activity

City Distance Mag. Time & Date
Minimum magnitude displayed is 2.5.

Coastal Water Temperatures

Place Temperature

Stations

Nearby Weather Stations

Station Location Temp. Windchill Dew Point Humidity Wind Precip. Elev Updated Type